Time;durP1;ratioP1;P1;durP2;ratioP2;P2;SDS_P1;SDS_P2;PMS_P1;PMS_P2;Temp;Humidity;BMP_temperature;BMP_pressure;BME280_temperature;BME280_humidity;BME280_pressure;Samples;Min_cycle;Max_cycle;Signal;HPM_P1;HPM_P2
2020/12/04 00:00:48;;;;;;;15.82;10.80;;;1.30;99.90;;;;;;5062133;28;20943;-76
2020/12/04 00:03:14;;;;;;;14.30;10.43;;;1.30;99.90;;;;;;5064128;28;20225;-77
2020/12/04 00:05:40;;;;;;;14.48;10.25;;;1.40;99.90;;;;;;5193313;22;20311;-78
2020/12/04 00:08:07;;;;;;;15.15;10.52;;;1.40;99.90;;;;;;5058842;28;20200;-78
2020/12/04 00:10:33;;;;;;;15.80;11.57;;;1.30;99.90;;;;;;5066675;28;20258;-77
2020/12/04 00:12:59;;;;;;;13.73;10.50;;;1.30;99.90;;;;;;5066910;28;20220;-77
2020/12/04 00:15:26;;;;;;;13.50;11.43;;;1.30;99.90;;;;;;5064468;28;20204;-78
2020/12/04 00:17:52;;;;;;;13.90;11.10;;;1.30;99.90;;;;;;5069185;28;20675;-77
2020/12/04 00:20:19;;;;;;;18.95;10.65;;;1.30;99.90;;;;;;5065216;28;20200;-76
2020/12/04 00:22:45;;;;;;;14.30;10.57;;;1.30;99.90;;;;;;5065319;28;20236;-77
2020/12/04 00:25:11;;;;;;;14.60;9.65;;;1.30;99.90;;;;;;5066665;28;20204;-78
2020/12/04 00:27:37;;;;;;;15.18;10.45;;;1.30;99.90;;;;;;5061222;28;20196;-77
2020/12/04 00:30:04;;;;;;;14.10;10.57;;;1.30;99.90;;;;;;5060011;28;20243;-77
2020/12/04 00:32:31;;;;;;;14.10;10.15;;;1.30;99.90;;;;;;5056818;28;20216;-77
2020/12/04 00:34:57;;;;;;;12.82;9.65;;;1.30;99.90;;;;;;5060073;28;20196;-77
2020/12/04 00:37:23;;;;;;;15.90;9.73;;;1.30;99.90;;;;;;5057895;28;20197;-77
2020/12/04 00:39:49;;;;;;;16.13;10.90;;;1.20;99.90;;;;;;5059585;28;20197;-77
2020/12/04 00:42:16;;;;;;;16.50;10.15;;;1.20;99.90;;;;;;5056096;28;20604;-77
2020/12/04 00:44:42;;;;;;;15.50;9.73;;;1.20;99.90;;;;;;5058196;28;20219;-77
2020/12/04 00:47:08;;;;;;;13.05;10.25;;;1.20;99.90;;;;;;5132970;22;20255;-76
2020/12/04 00:49:35;;;;;;;16.17;10.50;;;1.10;99.90;;;;;;5055432;28;20208;-75
2020/12/04 00:52:01;;;;;;;12.45;8.85;;;1.10;99.90;;;;;;5055731;28;20228;-76
2020/12/04 00:54:28;;;;;;;12.95;9.50;;;1.10;99.90;;;;;;5055445;28;20197;-76
2020/12/04 00:56:54;;;;;;;13.63;10.20;;;1.10;99.90;;;;;;5054480;28;20212;-76
2020/12/04 00:59:20;;;;;;;10.50;8.02;;;1.10;99.90;;;;;;5048565;28;20563;-75
2020/12/04 01:01:46;;;;;;;14.88;10.32;;;1.20;99.90;;;;;;5055924;28;21051;-76
2020/12/04 01:04:12;;;;;;;14.30;9.77;;;1.20;99.90;;;;;;5062747;28;20699;-75
2020/12/04 01:06:40;;;;;;;13.32;9.93;;;1.20;99.90;;;;;;5050135;28;20213;-75
2020/12/04 01:09:07;;;;;;;14.45;9.20;;;1.10;99.90;;;;;;5046061;28;20565;-74
2020/12/04 01:11:33;;;;;;;12.30;9.55;;;1.10;99.90;;;;;;5048989;28;20224;-75
2020/12/04 01:14:00;;;;;;;14.18;11.02;;;1.10;99.90;;;;;;5049509;28;20215;-76
2020/12/04 01:16:26;;;;;;;14.52;11.02;;;1.10;99.90;;;;;;5049030;28;20205;-76
2020/12/04 01:18:52;;;;;;;15.55;10.57;;;1.10;99.90;;;;;;5047990;28;20445;-75
2020/12/04 01:21:18;;;;;;;16.98;11.18;;;1.10;99.90;;;;;;5049257;28;20201;-75
2020/12/04 01:23:46;;;;;;;14.88;10.52;;;1.10;99.90;;;;;;5049106;28;20228;-74
2020/12/04 01:26:12;;;;;;;13.27;10.65;;;1.00;99.90;;;;;;5048922;28;20205;-74
2020/12/04 01:28:38;;;;;;;15.02;11.18;;;1.00;99.90;;;;;;5047833;28;20213;-76
2020/12/04 01:31:04;;;;;;;17.23;10.18;;;1.00;99.90;;;;;;5049594;28;20224;-76
2020/12/04 01:33:32;;;;;;;13.85;9.35;;;1.10;99.90;;;;;;5047358;28;20220;-76
2020/12/04 01:35:58;;;;;;;15.38;9.85;;;1.00;99.90;;;;;;5047932;28;20201;-76
2020/12/04 01:38:24;;;;;;;15.13;10.55;;;1.10;99.90;;;;;;5048718;28;20577;-75
2020/12/04 01:40:57;;;;;;;15.02;10.43;;;1.10;99.90;;;;;;5048611;28;20209;-76
2020/12/04 01:43:23;;;;;;;14.98;11.15;;;1.10;99.90;;;;;;5047113;28;20228;-75
2020/12/04 01:45:50;;;;;;;16.50;10.82;;;1.10;99.90;;;;;;5049308;28;20216;-76
2020/12/04 01:48:16;;;;;;;13.30;10.95;;;1.10;99.90;;;;;;5048200;28;20224;-74
2020/12/04 01:50:43;;;;;;;16.45;11.30;;;1.10;99.90;;;;;;5048644;28;20590;-73
2020/12/04 01:53:09;;;;;;;16.85;11.13;;;1.00;99.90;;;;;;5046574;28;20236;-74
2020/12/04 01:55:35;;;;;;;18.50;11.68;;;1.00;99.90;;;;;;5048673;28;20205;-75
2020/12/04 01:58:03;;;;;;;18.33;11.80;;;0.90;99.90;;;;;;5046928;28;20197;-76
2020/12/04 02:00:30;;;;;;;16.25;11.07;;;0.90;99.90;;;;;;5046787;28;20349;-75
2020/12/04 02:02:56;;;;;;;16.95;11.48;;;1.00;99.90;;;;;;5048850;28;20221;-76
2020/12/04 02:05:22;;;;;;;16.98;11.50;;;1.00;99.90;;;;;;5046643;28;20209;-75
2020/12/04 02:07:56;;;;;;;15.30;10.88;;;0.90;99.90;;;;;;5046734;28;20232;-75
2020/12/04 02:10:28;;;;;;;15.80;10.80;;;0.90;99.90;;;;;;5047058;28;20201;-74
2020/12/04 02:12:55;;;;;;;15.25;10.40;;;0.90;99.90;;;;;;5046050;28;20237;-75
2020/12/04 02:15:23;;;;;;;13.02;9.70;;;0.90;99.90;;;;;;5048062;28;20208;-75
2020/12/04 02:17:54;;;;;;;15.52;10.93;;;0.90;99.90;;;;;;5047627;28;20248;-75
2020/12/04 02:20:22;;;;;;;17.38;11.45;;;0.90;99.90;;;;;;5050017;28;20668;-76
2020/12/04 02:22:49;;;;;;;15.93;11.48;;;0.90;99.90;;;;;;5045337;28;20515;-75
2020/12/04 02:25:16;;;;;;;15.13;9.75;;;0.90;99.90;;;;;;5048214;28;20683;-75
2020/12/04 02:27:46;;;;;;;13.65;10.48;;;0.90;99.90;;;;;;5048088;28;20201;-77
2020/12/04 02:30:17;;;;;;;14.00;9.52;;;0.90;99.90;;;;;;5048019;28;20212;-77
2020/12/04 02:32:43;;;;;;;14.32;11.18;;;0.90;99.90;;;;;;5047154;28;20396;-75
2020/12/04 02:35:10;;;;;;;14.50;9.95;;;1.00;99.90;;;;;;5046177;28;20194;-76
2020/12/04 02:37:36;;;;;;;12.55;10.50;;;1.00;99.90;;;;;;5047897;28;20661;-76
2020/12/04 02:40:03;;;;;;;14.07;10.50;;;1.00;99.90;;;;;;5050218;28;20205;-76
2020/12/04 02:42:29;;;;;;;15.35;11.48;;;1.00;99.90;;;;;;5046772;28;20252;-76
2020/12/04 02:44:55;;;;;;;16.45;10.10;;;1.00;99.90;;;;;;5035867;28;20220;-75
2020/12/04 02:47:26;;;;;;;11.57;9.30;;;1.00;99.90;;;;;;5049384;28;20224;-75
2020/12/04 02:49:52;;;;;;;14.55;10.18;;;1.00;99.90;;;;;;5049502;28;20201;-77
2020/12/04 02:52:23;;;;;;;13.50;10.65;;;1.00;99.90;;;;;;5047268;28;20274;-77
2020/12/04 02:54:49;;;;;;;14.43;10.30;;;0.90;99.90;;;;;;5049551;28;20565;-75
2020/12/04 02:57:17;;;;;;;13.90;10.05;;;0.90;99.90;;;;;;5051032;28;20205;-74
2020/12/04 02:59:43;;;;;;;14.25;10.05;;;0.90;99.90;;;;;;5049315;28;20205;-77
2020/12/04 03:02:10;;;;;;;14.15;9.85;;;0.90;99.90;;;;;;5047442;28;20603;-75
2020/12/04 03:04:37;;;;;;;15.88;11.38;;;0.80;99.90;;;;;;5048489;28;20684;-77
2020/12/04 03:07:03;;;;;;;14.50;10.60;;;0.80;99.90;;;;;;5048146;28;20205;-77
2020/12/04 03:09:29;;;;;;;15.20;10.18;;;0.90;99.90;;;;;;5046342;28;20212;-76
2020/12/04 03:11:56;;;;;;;15.13;10.52;;;0.90;99.90;;;;;;5046392;28;20220;-76
2020/12/04 03:14:23;;;;;;;13.60;10.07;;;0.90;99.90;;;;;;5049673;28;20294;-77
2020/12/04 03:16:50;;;;;;;14.90;9.77;;;0.90;99.90;;;;;;5047287;28;20208;-77
2020/12/04 03:19:16;;;;;;;13.02;9.00;;;0.90;99.90;;;;;;5047071;28;20288;-77
2020/12/04 03:21:42;;;;;;;16.85;12.50;;;0.90;99.90;;;;;;5047104;28;20236;-77
2020/12/04 03:24:09;;;;;;;15.38;10.63;;;0.90;99.90;;;;;;5047656;28;20711;-77
2020/12/04 03:26:35;;;;;;;15.95;10.30;;;0.90;99.90;;;;;;5045660;28;20212;-77
2020/12/04 03:29:01;;;;;;;13.65;9.75;;;0.90;99.90;;;;;;5047590;28;20201;-75
2020/12/04 03:31:29;;;;;;;16.65;9.77;;;0.80;99.90;;;;;;5046798;28;20288;-74
2020/12/04 03:33:55;;;;;;;13.50;9.55;;;0.90;99.90;;;;;;5046846;28;20197;-76
2020/12/04 03:36:21;;;;;;;15.85;10.02;;;0.90;99.90;;;;;;5046655;28;20208;-77
2020/12/04 03:38:47;;;;;;;13.95;9.55;;;0.90;99.90;;;;;;5045484;28;20205;-76
2020/12/04 03:41:14;;;;;;;15.90;10.07;;;1.00;99.90;;;;;;5046519;28;20668;-76
2020/12/04 03:43:40;;;;;;;12.82;8.85;;;1.00;99.90;;;;;;5044173;28;20675;-76
2020/12/04 03:46:08;;;;;;;14.32;8.88;;;1.00;99.90;;;;;;5046650;28;20224;-74
2020/12/04 03:48:35;;;;;;;11.00;8.48;;;1.00;99.90;;;;;;5048242;28;20286;-76
2020/12/04 03:51:02;;;;;;;10.02;8.32;;;1.00;99.90;;;;;;5046204;28;20207;-76
2020/12/04 03:53:28;;;;;;;12.93;9.13;;;1.00;99.90;;;;;;5043982;28;20217;-76
2020/12/04 03:55:54;;;;;;;9.18;8.07;;;1.10;99.90;;;;;;5046175;28;20638;-77
2020/12/04 03:58:20;;;;;;;11.13;8.07;;;1.10;99.90;;;;;;5046648;28;20224;-76
2020/12/04 04:00:47;;;;;;;12.80;8.77;;;1.20;99.90;;;;;;5045739;28;20224;-76
2020/12/04 04:03:13;;;;;;;9.70;7.55;;;1.20;99.90;;;;;;5046054;28;20220;-76
2020/12/04 04:05:40;;;;;;;11.30;7.35;;;1.20;99.90;;;;;;5045041;28;20205;-76
2020/12/04 04:08:07;;;;;;;10.40;7.20;;;1.20;99.90;;;;;;5045124;28;20232;-76
2020/12/04 04:10:33;;;;;;;12.88;8.43;;;1.20;99.90;;;;;;5046018;28;20197;-75
2020/12/04 04:12:59;;;;;;;13.63;8.45;;;1.20;99.90;;;;;;5046552;28;20221;-74
2020/12/04 04:15:26;;;;;;;10.32;7.85;;;1.20;99.90;;;;;;5027874;28;20224;-76
2020/12/04 04:17:52;;;;;;;11.20;7.85;;;1.20;99.90;;;;;;5043166;28;20201;-76
2020/12/04 04:20:18;;;;;;;10.40;7.90;;;1.20;99.90;;;;;;5047073;28;20200;-76
2020/12/04 04:22:45;;;;;;;10.48;7.50;;;1.20;99.90;;;;;;5044310;28;20628;-76
2020/12/04 04:25:15;;;;;;;10.75;7.70;;;1.20;99.90;;;;;;5046007;28;20228;-75
2020/12/04 04:27:41;;;;;;;11.48;8.75;;;1.20;99.90;;;;;;5044776;28;20231;-75
2020/12/04 04:30:08;;;;;;;8.98;7.35;;;1.20;99.90;;;;;;5046611;28;20204;-76
2020/12/04 04:32:35;;;;;;;11.60;7.53;;;1.20;99.90;;;;;;5043044;28;20224;-76
2020/12/04 04:35:01;;;;;;;11.13;7.82;;;1.20;99.90;;;;;;5045608;28;20559;-75
2020/12/04 04:37:27;;;;;;;10.73;7.88;;;1.30;99.90;;;;;;5047819;28;20200;-75
2020/12/04 04:39:54;;;;;;;12.27;8.68;;;1.30;99.90;;;;;;5049786;28;20660;-75
2020/12/04 04:42:20;;;;;;;15.32;8.70;;;1.30;99.90;;;;;;5044961;28;20221;-75
2020/12/04 04:44:46;;;;;;;11.25;8.35;;;1.30;99.90;;;;;;5048709;28;20637;-73
2020/12/04 04:47:17;;;;;;;10.20;7.60;;;1.30;99.90;;;;;;5050903;28;20214;-75
2020/12/04 04:49:47;;;;;;;11.35;8.13;;;1.30;99.90;;;;;;5042457;28;20228;-75
2020/12/04 04:52:16;;;;;;;11.45;9.30;;;1.30;99.90;;;;;;5049481;28;20220;-76
2020/12/04 04:54:44;;;;;;;12.60;9.05;;;1.30;99.90;;;;;;5047692;28;20204;-75
2020/12/04 04:57:12;;;;;;;13.20;8.70;;;1.40;99.90;;;;;;5034436;28;20284;-75
2020/12/04 04:59:38;;;;;;;10.60;8.25;;;1.40;99.90;;;;;;5034726;28;20197;-74
2020/12/04 05:02:05;;;;;;;14.07;9.15;;;1.50;99.90;;;;;;5042983;28;20217;-75
2020/12/04 05:04:55;;;;;;;14.05;8.20;;;1.50;99.90;;;;;;5042256;28;20979;-77
2020/12/04 05:07:30;;;;;;;10.27;7.25;;;1.60;99.90;;;;;;5054173;28;20209;-74
2020/12/04 05:10:10;;;;;;;9.68;7.22;;;1.60;99.90;;;;;;5047358;28;20206;-76
2020/12/04 05:12:37;;;;;;;10.05;7.78;;;1.60;99.90;;;;;;5050312;28;20217;-74
2020/12/04 05:15:22;;;;;;;12.52;8.80;;;1.50;99.90;;;;;;5045355;28;20197;-76
2020/12/04 05:18:10;;;;;;;13.32;8.38;;;1.50;99.90;;;;;;5034525;28;20194;-77
2020/12/04 05:20:38;;;;;;;10.82;8.02;;;1.50;99.90;;;;;;5054238;28;20193;-76
2020/12/04 05:23:05;;;;;;;9.98;7.25;;;1.50;99.90;;;;;;5046146;28;20213;-77
2020/12/04 05:25:35;;;;;;;11.23;7.10;;;1.60;99.90;;;;;;5046899;28;20660;-77
2020/12/04 05:28:14;;;;;;;13.20;9.93;;;1.50;99.90;;;;;;5048043;28;20209;-76
2020/12/04 05:30:44;;;;;;;10.38;8.77;;;1.60;99.90;;;;;;5038944;28;20189;-74
2020/12/04 05:33:11;;;;;;;12.70;7.55;;;1.60;99.90;;;;;;5049206;28;20221;-76
2020/12/04 05:35:38;;;;;;;10.38;7.88;;;1.60;99.90;;;;;;5051419;28;20796;-77
2020/12/04 05:38:14;;;;;;;9.65;7.85;;;1.60;99.90;;;;;;5049477;28;20200;-75
2020/12/04 05:40:43;;;;;;;10.45;7.53;;;1.60;99.90;;;;;;5049489;28;20201;-76
2020/12/04 05:43:10;;;;;;;11.85;7.35;;;1.60;99.90;;;;;;5049019;28;20220;-76
2020/12/04 05:45:38;;;;;;;9.80;7.45;;;1.70;99.90;;;;;;5049699;28;20216;-76
2020/12/04 05:48:12;;;;;;;9.00;6.18;;;1.70;99.90;;;;;;5047656;28;20205;-77
2020/12/04 05:50:40;;;;;;;10.10;7.50;;;1.60;99.90;;;;;;5047245;28;20714;-77
2020/12/04 05:53:08;;;;;;;10.00;7.18;;;1.60;99.90;;;;;;5048975;28;20282;-77
2020/12/04 05:55:35;;;;;;;9.23;7.15;;;1.60;99.90;;;;;;5047083;28;20564;-76
2020/12/04 05:58:02;;;;;;;10.55;7.10;;;1.60;99.90;;;;;;5048674;28;20212;-77
2020/12/04 06:00:29;;;;;;;8.55;6.78;;;1.60;99.90;;;;;;5039050;28;20255;-76
2020/12/04 06:03:00;;;;;;;10.57;7.32;;;1.60;99.90;;;;;;5046506;28;20221;-77
2020/12/04 06:05:27;;;;;;;11.77;8.35;;;1.60;99.90;;;;;;5047702;28;20228;-77
2020/12/04 06:07:59;;;;;;;13.07;8.65;;;1.70;99.90;;;;;;5046936;28;20212;-77
2020/12/04 06:10:30;;;;;;;13.68;9.48;;;1.70;99.90;;;;;;5048046;28;20196;-77
2020/12/04 06:12:57;;;;;;;13.07;9.50;;;1.70;99.90;;;;;;5048848;28;20217;-77
2020/12/04 06:15:26;;;;;;;11.80;8.95;;;1.70;99.90;;;;;;5046562;28;20197;-77
2020/12/04 06:18:02;;;;;;;15.43;9.90;;;1.70;99.90;;;;;;5047838;28;20204;-77
2020/12/04 06:20:29;;;;;;;11.18;7.47;;;1.70;99.90;;;;;;5048159;28;20296;-76
2020/12/04 06:23:12;;;;;;;9.93;7.25;;;1.70;99.90;;;;;;5046779;28;20221;-77
2020/12/04 06:26:02;;;;;;;11.85;8.43;;;1.70;99.90;;;;;;5046177;28;20197;-75
2020/12/04 06:28:31;;;;;;;11.00;8.20;;;1.80;99.90;;;;;;5048593;28;20259;-76
2020/12/04 06:31:02;;;;;;;12.48;9.70;;;1.80;99.90;;;;;;5048048;28;20751;-75
2020/12/04 06:33:48;;;;;;;12.80;8.90;;;1.80;99.90;;;;;;5048023;28;20735;-77
2020/12/04 06:36:34;;;;;;;13.48;8.68;;;1.80;99.90;;;;;;5049931;28;20197;-75
2020/12/04 06:39:02;;;;;;;12.52;8.50;;;1.80;99.90;;;;;;5047543;28;20196;-77
2020/12/04 06:41:32;;;;;;;11.80;9.45;;;1.80;99.90;;;;;;5051398;28;20207;-77
2020/12/04 06:44:00;;;;;;;15.98;9.77;;;1.80;99.90;;;;;;5048136;28;20224;-77
2020/12/04 06:46:48;;;;;;;12.65;8.98;;;1.80;99.90;;;;;;5049930;28;20595;-76
2020/12/04 06:52:13;;;;;;;14.88;9.40;;;1.80;99.90;;;;;;5042041;28;20235;-78
2020/12/04 06:54:41;;;;;;;15.23;10.25;;;1.80;99.90;;;;;;5050463;28;20258;-78
2020/12/04 06:57:08;;;;;;;14.07;10.23;;;1.80;99.90;;;;;;5056499;28;20197;-76
2020/12/04 06:59:36;;;;;;;17.98;10.05;;;1.80;99.90;;;;;;5057867;28;20201;-77
2020/12/04 07:02:08;;;;;;;14.73;9.70;;;1.80;99.90;;;;;;5067941;28;20227;-76
2020/12/04 07:04:37;;;;;;;15.40;8.90;;;1.80;99.90;;;;;;5063945;28;20216;-78
2020/12/04 07:07:11;;;;;;;9.88;8.07;;;1.80;99.90;;;;;;5064243;28;20232;-75
2020/12/04 07:09:38;;;;;;;11.27;8.48;;;1.80;99.90;;;;;;5056661;28;20362;-77
2020/12/04 07:12:05;;;;;;;12.52;8.57;;;1.70;99.90;;;;;;5053311;28;20244;-77
2020/12/04 07:14:32;;;;;;;14.13;9.15;;;1.70;99.90;;;;;;5048267;28;20851;-75
2020/12/04 07:16:58;;;;;;;10.90;9.05;;;1.80;99.90;;;;;;5048333;28;20205;-74
2020/12/04 07:19:26;;;;;;;13.32;9.85;;;1.80;99.90;;;;;;5052012;28;20212;-74
2020/12/04 07:21:54;;;;;;;13.35;9.25;;;1.80;99.90;;;;;;5065052;28;20217;-75
2020/12/04 07:24:20;;;;;;;10.00;8.15;;;1.80;99.90;;;;;;5051736;28;20620;-76
2020/12/04 07:26:52;;;;;;;13.13;8.27;;;1.80;99.90;;;;;;5051082;28;20201;-75
2020/12/04 07:29:19;;;;;;;15.07;9.05;;;1.90;99.90;;;;;;5064855;28;20204;-77
2020/12/04 07:31:47;;;;;;;13.75;9.57;;;1.90;99.90;;;;;;5071171;28;20239;-76
2020/12/04 07:34:17;;;;;;;13.77;10.23;;;1.90;99.90;;;;;;5071235;28;20196;-75
2020/12/04 07:36:49;;;;;;;13.57;9.80;;;1.90;99.90;;;;;;5072511;28;20208;-77
2020/12/04 07:39:26;;;;;;;13.90;10.38;;;1.90;99.90;;;;;;5072529;28;20260;-75
2020/12/04 07:41:54;;;;;;;13.57;10.23;;;1.90;99.90;;;;;;5071747;28;20235;-76
2020/12/04 07:44:30;;;;;;;12.35;9.35;;;2.00;99.90;;;;;;5072181;28;20224;-76
2020/12/04 07:47:01;;;;;;;16.98;11.45;;;2.00;99.90;;;;;;5072395;28;20199;-77
2020/12/04 07:49:28;;;;;;;16.33;11.20;;;2.00;99.90;;;;;;5070947;28;20200;-75
2020/12/04 07:52:07;;;;;;;16.05;8.63;;;2.00;99.90;;;;;;5070355;28;20327;-77
2020/12/04 07:54:35;;;;;;;15.05;9.02;;;2.10;99.90;;;;;;5052340;28;20208;-75
2020/12/04 07:57:02;;;;;;;15.43;9.32;;;2.10;99.90;;;;;;5050412;28;20606;-77
2020/12/04 07:59:31;;;;;;;10.35;7.57;;;2.00;99.90;;;;;;5049966;28;20212;-77
2020/12/04 08:01:57;;;;;;;9.77;8.13;;;2.00;99.90;;;;;;5049881;28;20225;-75
2020/12/04 08:04:24;;;;;;;15.48;9.43;;;2.10;99.90;;;;;;5047401;28;20244;-74
2020/12/04 08:06:50;;;;;;;13.68;10.30;;;2.00;99.90;;;;;;5050064;28;20209;-77
2020/12/04 08:09:17;;;;;;;16.83;8.90;;;2.10;99.90;;;;;;5048566;28;20205;-74
2020/12/04 08:11:51;;;;;;;16.35;10.50;;;2.10;99.90;;;;;;5050326;28;20231;-75
2020/12/04 08:14:24;;;;;;;13.38;10.75;;;2.20;99.90;;;;;;5054704;28;20201;-76
2020/12/04 08:16:53;;;;;;;12.90;8.93;;;2.20;99.90;;;;;;5056740;28;20196;-75
2020/12/04 08:19:23;;;;;;;13.02;9.73;;;2.30;99.90;;;;;;5048525;28;20208;-77
2020/12/04 08:21:59;;;;;;;16.27;11.25;;;2.30;99.90;;;;;;5056996;28;20221;-77
2020/12/04 08:24:27;;;;;;;17.33;10.15;;;2.30;99.90;;;;;;5048372;28;20282;-77
2020/12/04 08:27:03;;;;;;;13.23;10.32;;;2.30;99.90;;;;;;5048498;28;20201;-77
2020/12/04 08:29:29;;;;;;;14.93;9.50;;;2.30;99.90;;;;;;5050912;28;20967;-77
2020/12/04 08:32:20;;;;;;;15.23;10.45;;;2.30;99.90;;;;;;5054995;28;20699;-76
2020/12/04 08:34:48;;;;;;;15.00;8.65;;;2.40;99.90;;;;;;5044693;28;20207;-77
2020/12/04 08:37:17;;;;;;;14.95;9.60;;;2.40;99.90;;;;;;5054560;28;20205;-76
2020/12/04 08:39:48;;;;;;;14.90;10.05;;;2.50;99.90;;;;;;5046980;28;20214;-77
2020/12/04 08:42:31;;;;;;;18.95;9.80;;;2.60;99.90;;;;;;5050639;28;20228;-74
2020/12/04 08:45:08;;;;;;;15.55;9.50;;;2.60;99.90;;;;;;5049674;28;20228;-74
2020/12/04 08:47:38;;;;;;;15.18;10.65;;;2.70;99.90;;;;;;5045969;28;20243;-74
2020/12/04 08:50:16;;;;;;;15.57;9.73;;;2.80;99.90;;;;;;5050819;28;20208;-75
2020/12/04 08:52:45;;;;;;;16.38;10.60;;;2.80;99.90;;;;;;5052653;28;20273;-76
2020/12/04 08:55:14;;;;;;;18.00;10.82;;;2.90;99.90;;;;;;5052533;28;20689;-76
2020/12/04 08:57:42;;;;;;;20.35;10.80;;;2.90;99.90;;;;;;5048213;28;20302;-74
2020/12/04 09:00:11;;;;;;;17.20;10.95;;;3.00;99.90;;;;;;5044819;28;20723;-76
2020/12/04 09:02:38;;;;;;;15.73;10.88;;;3.10;99.90;;;;;;5043231;28;20227;-76
2020/12/04 09:05:06;;;;;;;15.07;10.27;;;3.10;99.90;;;;;;5047289;28;20228;-77
2020/12/04 09:07:33;;;;;;;17.83;11.68;;;3.20;99.90;;;;;;5047449;28;20193;-74
2020/12/04 09:09:59;;;;;;;17.17;11.38;;;3.30;99.90;;;;;;5047763;28;20224;-74
2020/12/04 09:12:25;;;;;;;16.15;11.13;;;3.30;99.90;;;;;;5046600;28;20228;-72
2020/12/04 09:14:52;;;;;;;15.00;10.27;;;3.40;99.90;;;;;;5038695;28;20197;-76
2020/12/04 09:17:19;;;;;;;15.93;11.35;;;3.50;99.90;;;;;;5049615;28;20197;-76
2020/12/04 09:19:46;;;;;;;12.48;9.80;;;3.50;99.90;;;;;;5047226;28;20220;-76
2020/12/04 09:22:13;;;;;;;18.83;10.18;;;3.50;99.90;;;;;;5052816;28;20658;-75
2020/12/04 09:24:39;;;;;;;11.70;8.85;;;3.50;99.90;;;;;;5050751;28;20218;-75
2020/12/04 09:27:05;;;;;;;12.93;9.02;;;3.60;99.90;;;;;;5057836;28;20208;-74
2020/12/04 09:29:32;;;;;;;10.77;7.63;;;3.60;99.90;;;;;;5064447;28;20542;-75
2020/12/04 09:32:06;;;;;;;13.05;8.30;;;3.60;99.90;;;;;;5053386;28;20754;-74
2020/12/04 09:34:32;;;;;;;11.63;8.32;;;3.70;99.90;;;;;;5051846;28;20212;-75
2020/12/04 09:37:09;;;;;;;14.40;9.05;;;3.70;99.90;;;;;;5050177;28;20201;-75
2020/12/04 09:39:35;;;;;;;13.15;9.52;;;3.70;99.90;;;;;;5054107;28;20208;-76
2020/12/04 09:42:01;;;;;;;10.45;7.72;;;3.70;99.90;;;;;;5053529;28;20221;-77
2020/12/04 09:44:27;;;;;;;11.57;8.80;;;3.80;99.90;;;;;;5054075;28;20221;-75
2020/12/04 09:46:54;;;;;;;15.05;9.93;;;3.70;99.90;;;;;;5043333;28;20585;-75
2020/12/04 09:49:21;;;;;;;14.05;10.00;;;3.80;99.90;;;;;;5059191;28;20668;-76
2020/12/04 09:51:47;;;;;;;12.85;8.93;;;3.70;99.90;;;;;;5052464;28;20441;-74
2020/12/04 09:54:13;;;;;;;15.80;10.38;;;3.70;99.90;;;;;;5051112;28;20196;-74
2020/12/04 09:56:39;;;;;;;12.65;9.90;;;3.70;99.90;;;;;;5054406;28;20204;-75
2020/12/04 09:59:06;;;;;;;13.18;8.63;;;3.60;99.90;;;;;;5053078;28;20200;-73
2020/12/04 10:01:32;;;;;;;15.40;9.63;;;3.60;99.90;;;;;;5052096;28;20205;-75
2020/12/04 10:03:58;;;;;;;13.35;9.10;;;3.60;99.90;;;;;;5050065;28;20630;-75
2020/12/04 10:06:25;;;;;;;14.63;10.30;;;3.60;99.90;;;;;;5052433;28;20205;-76
2020/12/04 10:08:54;;;;;;;13.88;9.38;;;3.60;99.90;;;;;;5056776;28;20200;-76
2020/12/04 10:11:20;;;;;;;13.15;9.05;;;3.50;99.90;;;;;;5070677;28;20200;-77
2020/12/04 10:13:48;;;;;;;14.18;9.48;;;3.60;99.90;;;;;;5051104;28;20209;-77
2020/12/04 10:16:14;;;;;;;14.48;8.65;;;3.50;99.90;;;;;;5050823;28;20310;-73
2020/12/04 10:18:40;;;;;;;12.25;9.35;;;3.50;99.90;;;;;;5051721;28;20626;-74
2020/12/04 10:21:06;;;;;;;15.35;9.73;;;3.40;99.90;;;;;;5050751;28;20652;-73
2020/12/04 10:23:33;;;;;;;17.35;10.38;;;3.50;99.90;;;;;;5051238;28;20312;-74
2020/12/04 10:26:00;;;;;;;15.90;10.48;;;3.50;99.90;;;;;;5051647;28;20566;-75
2020/12/04 10:28:28;;;;;;;24.58;10.43;;;3.50;99.90;;;;;;5049150;28;20209;-77
2020/12/04 10:30:55;;;;;;;18.15;10.00;;;3.60;99.90;;;;;;5049239;28;20216;-75
2020/12/04 10:33:21;;;;;;;11.50;8.98;;;3.50;99.90;;;;;;5047747;28;20224;-75
2020/12/04 10:35:47;;;;;;;13.60;9.23;;;3.50;99.90;;;;;;5050161;28;20592;-76
2020/12/04 10:38:13;;;;;;;15.25;9.98;;;3.60;99.90;;;;;;5050258;28;20201;-76
2020/12/04 10:40:40;;;;;;;12.43;9.98;;;3.60;99.90;;;;;;5050034;28;20220;-76
2020/12/04 10:43:06;;;;;;;15.65;11.10;;;3.60;99.90;;;;;;5049298;28;20708;-74
2020/12/04 10:45:33;;;;;;;16.02;10.18;;;3.60;99.90;;;;;;5049894;28;20724;-74
2020/12/04 10:47:59;;;;;;;13.35;9.75;;;3.60;99.90;;;;;;5049804;28;20215;-75
2020/12/04 10:50:25;;;;;;;16.58;9.50;;;3.50;99.90;;;;;;5048018;28;20204;-74
2020/12/04 10:52:51;;;;;;;17.48;9.13;;;3.50;99.90;;;;;;5049093;28;20216;-76
2020/12/04 10:55:18;;;;;;;13.82;9.27;;;3.50;99.90;;;;;;5049518;28;20233;-75
2020/12/04 10:57:45;;;;;;;14.35;8.75;;;3.60;99.90;;;;;;5048336;28;20627;-76
2020/12/04 11:00:11;;;;;;;9.15;7.95;;;3.60;99.90;;;;;;5048317;28;20544;-76
2020/12/04 11:02:39;;;;;;;13.00;9.55;;;3.60;99.90;;;;;;5047067;28;20259;-74
2020/12/04 11:07:50;;;;;;;12.13;7.20;;;3.60;99.90;;;;;;5047327;28;20204;-75
2020/12/04 11:10:16;;;;;;;10.77;7.15;;;3.60;99.90;;;;;;5049008;28;20204;-73
2020/12/04 11:12:42;;;;;;;10.55;8.10;;;3.70;99.90;;;;;;5046000;28;20224;-74
2020/12/04 11:15:10;;;;;;;14.25;7.15;;;3.70;99.90;;;;;;5049193;28;20201;-73
2020/12/04 11:17:38;;;;;;;10.30;7.68;;;3.80;99.90;;;;;;5049225;28;20208;-76
2020/12/04 11:20:04;;;;;;;11.18;8.73;;;3.90;99.90;;;;;;5047844;28;20208;-76
2020/12/04 11:22:33;;;;;;;9.20;6.88;;;3.90;99.90;;;;;;5048662;28;20231;-74
2020/12/04 11:24:59;;;;;;;12.73;6.68;;;4.00;99.90;;;;;;5049264;28;20878;-77
2020/12/04 11:27:25;;;;;;;12.55;8.02;;;4.00;99.90;;;;;;5047488;28;20224;-77
2020/12/04 11:29:51;;;;;;;12.88;8.45;;;4.10;99.90;;;;;;5048762;28;20207;-75
2020/12/04 11:32:18;;;;;;;12.93;8.23;;;4.10;99.90;;;;;;5038537;28;20240;-75
2020/12/04 11:34:45;;;;;;;12.60;7.03;;;4.10;99.90;;;;;;5049126;28;20205;-75
2020/12/04 11:37:12;;;;;;;9.65;7.55;;;4.20;99.90;;;;;;5047865;28;20204;-73
2020/12/04 11:39:40;;;;;;;15.20;7.75;;;4.20;99.90;;;;;;5044015;28;20600;-73
2020/12/04 11:42:07;;;;;;;11.43;8.30;;;4.20;99.90;;;;;;5046820;28;20217;-75
2020/12/04 11:44:33;;;;;;;13.70;8.77;;;4.20;99.90;;;;;;5048990;28;20221;-73
2020/12/04 11:46:59;;;;;;;15.95;8.55;;;4.30;99.90;;;;;;5053924;28;20205;-73
2020/12/04 11:49:27;;;;;;;10.23;7.72;;;4.30;99.90;;;;;;5047343;28;20779;-76
2020/12/04 11:51:53;;;;;;;12.75;8.93;;;4.40;99.90;;;;;;5051005;28;20240;-75
2020/12/04 11:54:19;;;;;;;13.13;8.35;;;4.40;99.90;;;;;;5051204;28;20821;-75
2020/12/04 11:56:47;;;;;;;11.98;8.85;;;4.40;99.90;;;;;;5048156;28;20696;-74
2020/12/04 11:59:13;;;;;;;12.40;8.25;;;4.40;99.90;;;;;;5045275;28;20623;-76
2020/12/04 12:01:39;;;;;;;14.98;8.93;;;4.40;99.90;;;;;;5048770;28;20220;-75
2020/12/04 12:04:05;;;;;;;9.52;7.70;;;4.40;99.90;;;;;;5049239;28;20201;-76
2020/12/04 12:06:32;;;;;;;16.80;7.65;;;4.40;99.90;;;;;;5049543;28;20201;-76
2020/12/04 12:08:59;;;;;;;9.57;7.30;;;4.40;99.90;;;;;;5112573;22;20232;-73
2020/12/04 12:11:25;;;;;;;9.57;7.50;;;4.30;99.90;;;;;;5064427;28;20226;-73
2020/12/04 12:13:51;;;;;;;11.70;7.60;;;4.30;99.90;;;;;;5068502;28;20207;-73
2020/12/04 12:16:17;;;;;;;10.57;7.35;;;4.30;99.90;;;;;;5068527;28;20207;-74
2020/12/04 12:18:43;;;;;;;12.02;8.05;;;4.30;99.90;;;;;;5068308;28;20597;-73
2020/12/04 12:21:10;;;;;;;13.05;9.52;;;4.30;99.90;;;;;;5069005;28;20200;-73
2020/12/04 12:23:39;;;;;;;16.48;8.15;;;4.30;99.90;;;;;;5068735;28;20309;-74
2020/12/04 12:26:05;;;;;;;13.43;8.05;;;4.30;99.90;;;;;;5069456;28;20246;-74
2020/12/04 12:28:32;;;;;;;10.77;8.05;;;4.30;99.90;;;;;;5068969;28;20261;-73
2020/12/04 12:30:58;;;;;;;14.23;10.18;;;4.30;99.90;;;;;;5068786;28;20204;-73
2020/12/04 12:33:24;;;;;;;14.13;8.70;;;4.30;99.90;;;;;;5059213;28;20739;-73
2020/12/04 12:35:50;;;;;;;20.55;9.32;;;4.40;99.90;;;;;;5057687;28;20201;-73
2020/12/04 12:38:16;;;;;;;12.30;8.63;;;4.40;99.90;;;;;;5058904;28;20197;-73
2020/12/04 12:40:43;;;;;;;14.43;9.80;;;4.50;99.90;;;;;;5057988;28;20193;-73
2020/12/04 12:43:10;;;;;;;15.70;9.85;;;4.50;99.90;;;;;;5056950;28;20225;-73
2020/12/04 12:45:39;;;;;;;12.38;9.73;;;4.50;99.90;;;;;;5058955;28;20243;-74
2020/12/04 12:48:05;;;;;;;12.93;9.00;;;4.40;99.90;;;;;;5058869;28;20287;-73
2020/12/04 12:50:31;;;;;;;13.07;8.68;;;4.40;99.90;;;;;;5057373;28;20193;-73
2020/12/04 12:52:57;;;;;;;13.23;9.57;;;4.40;99.90;;;;;;5057875;28;20216;-74